Chaval, Brazil
Current Conditions -  °F | °C
As of 6:00 PM on Friday 31 Oct 2014 (Local Time) from SBPB Reporting Station
Clear Clear  
Wind Chill: 82°   Ceiling: Unl
Heat Index: 87°   Visibility: 6mi
Dew Point: 72°   Wind: 21mph
Humidity: 70%   Direction: 100°E
Pressure: 29.8"   Gusts: NA
Location:  3.08°S, 41.45°W
Report Text: SBPB 312100Z 10018KT CAVOK 28/22 Q1009
Loading
Personal Weather Stations






























Interactive Weather Map
Tropical Storm Tracking
New forecast layout! Learn more

10-Day Weather Forecast

Advertisements
Track Severe Weather on mobile